2D1 weather

Barber Airport
Alliance, Ohio, United States

Public forecast

Using degrees Fahrenheit for public forecast. Weather courtesy of forecast.io.

METAR (pilot weather report)

Closest report is Akron Canton Regional Airport, 15.9 nm (29.4 km) WSW. Retrieved 2019/05/19 11:51 UTC (15 minutes ago):

KCAK 191151Z 19008KT 10SM FEW055 BKN250 23/16 A2990 RMK AO2 SLP114 70001 T02280161 10228 20194 56003

TAF (pilot weather forecast)

Closest forecast is Akron Canton Regional Airport, 15.9 nm (29.4 km) WSW. Retrieved 2019/05/19 12:22 UTC (0 seconds ago):

TAF KCAK 191120Z 1912/2012 19010KT P6SM BKN250 FM191400 21019G26KT P6SM SCT050 BKN250 FM191700 22021G28KT P6SM BKN050 PROB30 1921/2003 P6SM TSRA OVC035CB FM200300 23013G20KT P6SM BKN050